Time;durP1;ratioP1;P1;durP2;ratioP2;P2;SDS_P1;SDS_P2;PMS_P1;PMS_P2;Temp;Humidity;BMP_temperature;BMP_pressure;BME280_temperature;BME280_humidity;BME280_pressure;Samples;Min_cycle;Max_cycle;Signal;HPM_P1;HPM_P2
2021/07/04 00:00:47;;;;;;;;;;;;;;;18.48;69.49;99776.66;125313;1102;104718;-76
2021/07/04 00:03:25;;;;;;;;;;;;;;;18.47;69.49;99777.58;125306;1102;104204;-76
2021/07/04 00:05:55;;;;;;;;;;;;;;;18.46;69.57;99784.64;125193;1101;104137;-77
2021/07/04 00:08:25;;;;;;;;;;;;;;;18.47;69.69;99782.89;125150;1102;104150;-77
2021/07/04 00:10:55;;;;;;;;;;;;;;;18.47;69.72;99785.55;125189;1102;104143;-78
2021/07/04 00:13:25;;;;;;;;;;;;;;;18.46;69.82;99781.11;125222;1102;104347;-77
2021/07/04 00:15:58;;;;;;;;;;;;;;;18.44;69.55;99777.59;125221;1102;104172;-78
2021/07/04 00:18:28;;;;;;;;;;;;;;;18.45;70.06;99771.38;125194;1102;104140;-77
2021/07/04 00:20:58;;;;;;;;;;;;;;;18.42;70.09;99774.95;125111;1102;104252;-77
2021/07/04 00:23:27;;;;;;;;;;;;;;;18.39;69.94;99782.95;125141;1102;104204;-76
2021/07/04 00:25:57;;;;;;;;;;;;;;;18.34;70.31;99774.14;124999;1102;104140;-77
2021/07/04 00:28:26;;;;;;;;;;;;;;;18.29;70.53;99773.27;125239;1101;104159;-76
2021/07/04 00:30:58;;;;;;;;;;;;;;;18.25;70.31;99769.77;125089;1102;104297;-78
2021/07/04 00:33:27;;;;;;;;;;;;;;;18.21;70.44;99765.36;125046;1102;104249;-77
2021/07/04 00:35:57;;;;;;;;;;;;;;;18.19;70.68;99769.81;125176;1102;104175;-76
2021/07/04 00:38:27;;;;;;;;;;;;;;;18.17;70.40;99760.98;125264;1102;104162;-76
2021/07/04 00:40:57;;;;;;;;;;;;;;;18.16;70.75;99767.17;125188;1102;104238;-76
2021/07/04 00:43:27;;;;;;;;;;;;;;;18.17;70.81;99766.30;125234;1101;104136;-77
2021/07/04 00:45:56;;;;;;;;;;;;;;;18.17;70.89;99768.95;125274;1102;104141;-77
2021/07/04 00:48:26;;;;;;;;;;;;;;;18.19;70.95;99769.81;125298;1102;104166;-76
2021/07/04 00:50:56;;;;;;;;;;;;;;;18.19;70.74;99764.50;125235;1102;104136;-76
2021/07/04 00:53:25;;;;;;;;;;;;;;;18.19;70.81;99766.28;125258;1102;104146;-77
2021/07/04 00:55:55;;;;;;;;;;;;;;;18.20;71.21;99760.97;125192;1102;104131;-77
2021/07/04 00:58:24;;;;;;;;;;;;;;;18.20;70.94;99766.27;125257;1102;104290;-76
2021/07/04 01:00:56;;;;;;;;;;;;;;;18.18;71.17;99768.03;125208;1102;104191;-77
2021/07/04 01:03:25;;;;;;;;;;;;;;;18.14;71.30;99776.94;125252;1102;104274;-77
2021/07/04 01:05:57;;;;;;;;;;;;;;;18.10;71.31;99775.19;125267;1102;104213;-77
2021/07/04 01:08:27;;;;;;;;;;;;;;;18.04;71.24;99773.44;125210;1102;104656;-77
2021/07/04 01:10:56;;;;;;;;;;;;;;;17.99;71.27;99769.07;125174;1102;104163;-77
2021/07/04 01:13:30;;;;;;;;;;;;;;;17.93;71.22;99762.89;125253;1102;104191;-76
2021/07/04 01:16:07;;;;;;;;;;;;;;;17.92;71.33;99769.11;125235;1101;104197;-77
2021/07/04 01:18:38;;;;;;;;;;;;;;;17.92;71.43;99777.07;125249;1102;104270;-76
2021/07/04 01:21:09;;;;;;;;;;;;;;;17.91;71.59;99782.38;125269;1102;104143;-76
2021/07/04 01:23:44;;;;;;;;;;;;;;;17.90;71.82;99778.86;125303;1102;104156;-76
2021/07/04 01:26:14;;;;;;;;;;;;;;;17.89;71.55;99774.44;125301;1102;104150;-76
2021/07/04 01:28:43;;;;;;;;;;;;;;;17.89;72.03;99779.73;125263;1102;104778;-76
2021/07/04 01:31:12;;;;;;;;;;;;;;;17.87;71.72;99773.53;125169;1102;104242;-76
2021/07/04 01:33:48;;;;;;;;;;;;;;;17.85;71.67;99769.98;125216;1102;104220;-77
2021/07/04 01:36:26;;;;;;;;;;;;;;;17.85;71.70;99777.08;125205;1102;104171;-76
2021/07/04 01:38:55;;;;;;;;;;;;;;;17.81;72.04;99773.57;125326;1102;104285;-76
2021/07/04 01:41:25;;;;;;;;;;;;;;;17.78;71.72;99785.07;125230;1102;104177;-76
2021/07/04 01:43:54;;;;;;;;;;;;;;;17.75;72.04;99771.81;125280;1102;104680;-77
2021/07/04 01:46:28;;;;;;;;;;;;;;;17.73;72.11;99775.36;125284;1102;104637;-77
2021/07/04 01:49:02;;;;;;;;;;;;;;;17.69;71.93;99778.94;125283;1100;104188;-76
2021/07/04 01:51:31;;;;;;;;;;;;;;;17.66;72.18;99776.30;125168;1102;104784;-77
2021/07/04 01:54:00;;;;;;;;;;;;;;;17.63;72.84;99778.97;125235;1102;104297;-76
2021/07/04 01:56:37;;;;;;;;;;;;;;;17.59;72.31;99781.63;125258;1102;104137;-77
2021/07/04 01:59:07;;;;;;;;;;;;;;;17.56;72.30;99780.73;125167;1102;104176;-76
2021/07/04 02:01:48;;;;;;;;;;;;;;;17.55;72.61;99787.83;125212;1100;104185;-76
2021/07/04 02:04:17;;;;;;;;;;;;;;;17.52;72.15;99785.19;125286;1102;104130;-78
2021/07/04 02:06:53;;;;;;;;;;;;;;;17.50;72.82;99794.93;125248;1102;104668;-76
2021/07/04 02:09:23;;;;;;;;;;;;;;;17.48;73.06;99790.51;125254;1102;104145;-76
2021/07/04 02:11:53;;;;;;;;;;;;;;;17.46;72.92;99782.56;125204;1101;104137;-76
2021/07/04 02:14:22;;;;;;;;;;;;;;;17.46;73.01;99776.38;125233;1102;104265;-78
2021/07/04 02:16:59;;;;;;;;;;;;;;;17.44;72.99;99779.05;125255;1102;104383;-76
2021/07/04 02:19:48;;;;;;;;;;;;;;;17.41;72.82;99779.92;125197;1102;104242;-76
2021/07/04 02:22:26;;;;;;;;;;;;;;;17.39;73.15;99779.06;125217;1102;104277;-77
2021/07/04 02:25:08;;;;;;;;;;;;;;;17.38;73.33;99779.94;125241;1102;104146;-78
2021/07/04 02:27:39;;;;;;;;;;;;;;;17.38;73.33;99773.76;125231;1102;104150;-76
2021/07/04 02:30:29;;;;;;;;;;;;;;;17.38;73.22;99768.45;125278;1102;104162;-76
2021/07/04 02:33:03;;;;;;;;;;;;;;;17.38;73.43;99769.33;125184;1102;104152;-76
2021/07/04 02:35:34;;;;;;;;;;;;;;;17.38;73.33;99776.41;125233;1102;104159;-76
2021/07/04 02:38:05;;;;;;;;;;;;;;;17.38;73.49;99776.41;125269;1102;104268;-77
2021/07/04 02:40:37;;;;;;;;;;;;;;;17.37;73.33;99777.29;125217;1102;104162;-77
2021/07/04 02:43:10;;;;;;;;;;;;;;;17.37;73.28;99780.84;125233;1102;104169;-77
2021/07/04 02:45:40;;;;;;;;;;;;;;;17.38;73.54;99782.59;125205;1101;104561;-77
2021/07/04 02:48:18;;;;;;;;;;;;;;;17.37;73.68;99771.98;125268;1102;104146;-77
2021/07/04 02:50:52;;;;;;;;;;;;;;;17.38;73.68;99777.28;125165;1102;104182;-77
2021/07/04 02:53:25;;;;;;;;;;;;;;;17.38;73.51;99771.11;125216;1102;104300;-76
2021/07/04 02:55:56;;;;;;;;;;;;;;;17.39;73.74;99772.84;125286;1102;104446;-77
2021/07/04 02:58:28;;;;;;;;;;;;;;;17.41;73.95;99771.97;125274;1102;104140;-77
2021/07/04 03:00:57;;;;;;;;;;;;;;;17.43;73.85;99771.96;125267;1102;104293;-77
2021/07/04 03:03:27;;;;;;;;;;;;;;;17.45;73.53;99770.17;125186;1102;104287;-76
2021/07/04 03:05:57;;;;;;;;;;;;;;;17.46;73.70;99768.42;125309;1102;104160;-77
2021/07/04 03:08:26;;;;;;;;;;;;;;;17.50;73.22;99767.50;125265;1102;104391;-77
2021/07/04 03:10:57;;;;;;;;;;;;;;;17.52;73.72;99758.66;125248;1102;104204;-77
2021/07/04 03:13:31;;;;;;;;;;;;;;;17.55;73.62;99760.44;125050;1102;105486;-78
2021/07/04 03:16:02;;;;;;;;;;;;;;;17.57;73.58;99758.64;125290;1102;104172;-77
2021/07/04 03:18:34;;;;;;;;;;;;;;;17.63;74.19;99768.36;125259;1102;104153;-76
2021/07/04 03:21:04;;;;;;;;;;;;;;;17.63;73.63;99763.92;125247;1102;104206;-76
2021/07/04 03:23:33;;;;;;;;;;;;;;;17.65;73.90;99769.22;125272;1102;104187;-76
2021/07/04 03:26:06;;;;;;;;;;;;;;;17.68;73.93;99775.38;125244;1102;104188;-76
2021/07/04 03:28:35;;;;;;;;;;;;;;;17.72;73.84;99765.66;125243;1101;104171;-77
2021/07/04 03:31:21;;;;;;;;;;;;;;;17.76;73.77;99773.59;125201;1101;104144;-76
2021/07/04 03:33:52;;;;;;;;;;;;;;;17.79;73.75;99773.58;125186;1102;105303;-76
2021/07/04 03:36:22;;;;;;;;;;;;;;;17.83;73.89;99769.12;125265;1102;104213;-76
2021/07/04 03:38:51;;;;;;;;;;;;;;;17.84;73.90;99765.59;125235;1101;104194;-76
2021/07/04 03:41:20;;;;;;;;;;;;;;;17.86;73.83;99765.59;125184;1102;104194;-76
2021/07/04 03:43:50;;;;;;;;;;;;;;;17.89;74.00;99766.47;125207;1102;104585;-76
2021/07/04 03:46:20;;;;;;;;;;;;;;;17.91;73.95;99759.38;125256;1102;104631;-76
2021/07/04 03:48:52;;;;;;;;;;;;;;;17.95;74.10;99760.22;125290;1102;104181;-76
2021/07/04 03:51:26;;;;;;;;;;;;;;;18.01;74.02;99761.97;125224;1102;104606;-77
2021/07/04 03:53:59;;;;;;;;;;;;;;;18.05;74.32;99761.07;125179;1102;104230;-77
2021/07/04 03:56:28;;;;;;;;;;;;;;;18.08;73.98;99758.39;125258;1102;104383;-77
2021/07/04 03:59:00;;;;;;;;;;;;;;;18.14;74.14;99763.66;125255;1102;104137;-76
2021/07/04 04:01:29;;;;;;;;;;;;;;;18.18;73.92;99754.76;125251;1102;104146;-77
2021/07/04 04:03:59;;;;;;;;;;;;;;;18.22;74.10;99764.48;125280;1102;101912;-76
2021/07/04 04:06:30;;;;;;;;;;;;;;;18.27;74.21;99767.97;125245;1102;104140;-76
2021/07/04 04:09:11;;;;;;;;;;;;;;;18.34;74.19;99755.55;125267;1100;104579;-77
2021/07/04 04:11:58;;;;;;;;;;;;;;;18.44;74.19;99756.34;125294;1102;104156;-77
2021/07/04 04:14:36;;;;;;;;;;;;;;;18.52;74.17;99754.50;125216;1102;104201;-76
2021/07/04 04:17:07;;;;;;;;;;;;;;;18.59;74.27;99748.25;125256;1102;105715;-77
2021/07/04 04:19:41;;;;;;;;;;;;;;;18.68;73.91;99750.82;125150;1102;104139;-77
2021/07/04 04:22:12;;;;;;;;;;;;;;;18.73;73.72;99745.46;125278;1102;104146;-77
2021/07/04 04:24:47;;;;;;;;;;;;;;;18.82;73.86;99749.78;125213;1102;104153;-76
2021/07/04 04:27:17;;;;;;;;;;;;;;;18.86;74.09;99751.56;125250;1101;104163;-76
2021/07/04 04:29:47;;;;;;;;;;;;;;;18.89;73.62;99742.69;125206;1102;104669;-77
2021/07/04 04:32:17;;;;;;;;;;;;;;;18.93;73.83;99739.08;125181;1102;104213;-79
2021/07/04 04:34:47;;;;;;;;;;;;;;;18.98;73.69;99740.80;125228;1102;104271;-75
2021/07/04 04:37:17;;;;;;;;;;;;;;;19.04;73.75;99748.71;125260;1102;104178;-77
2021/07/04 04:39:46;;;;;;;;;;;;;;;19.10;73.93;99749.53;125286;1102;104249;-77
2021/07/04 04:42:15;;;;;;;;;;;;;;;19.15;73.79;99743.28;125307;1102;104162;-77
2021/07/04 04:44:44;;;;;;;;;;;;;;;19.19;73.41;99749.43;125190;1102;104146;-77
2021/07/04 04:47:14;;;;;;;;;;;;;;;19.24;73.79;99744.92;125213;1102;104162;-78
2021/07/04 04:50:03;;;;;;;;;;;;;;;19.32;74.14;99756.38;125185;1102;104142;-77
2021/07/04 04:52:46;;;;;;;;;;;;;;;19.40;73.15;99757.16;125259;1102;104639;-75
2021/07/04 04:55:45;;;;;;;;;;;;;;;;;;;;;
2021/07/04 04:58:26;;;;;;;;;;;;;;;19.47;73.09;99770.39;125359;1099;104194;-76
2021/07/04 05:00:55;;;;;;;;;;;;;;;19.50;73.32;99768.55;126382;1099;104160;-78
2021/07/04 05:03:24;;;;;;;;;;;;;;;19.54;73.80;99772.05;125291;1099;104243;-77
2021/07/04 05:05:53;;;;;;;;;;;;;;;19.55;72.94;99763.17;126301;1099;104166;-77
2021/07/04 05:08:25;;;;;;;;;;;;;;;19.56;73.69;99764.95;126379;1099;104185;-77
2021/07/04 05:10:54;;;;;;;;;;;;;;;19.56;73.57;99776.46;126338;1099;104177;-76
2021/07/04 05:13:24;;;;;;;;;;;;;;;19.60;72.79;99787.07;126385;1099;104618;-77
2021/07/04 05:15:53;;;;;;;;;;;;;;;19.62;72.81;99788.82;126328;1099;104143;-76
2021/07/04 05:18:22;;;;;;;;;;;;;;;19.63;73.42;99787.03;125237;1099;104153;-77
2021/07/04 05:20:51;;;;;;;;;;;;;;;19.66;72.69;99790.52;126363;1099;104217;-77
2021/07/04 05:23:20;;;;;;;;;;;;;;;19.71;73.05;99788.70;126337;1099;105320;-76
2021/07/04 05:25:50;;;;;;;;;;;;;;;19.72;73.29;99787.78;126316;1099;104208;-77
2021/07/04 05:28:19;;;;;;;;;;;;;;;19.74;72.47;99771.80;126368;1099;104199;-76
2021/07/04 05:30:48;;;;;;;;;;;;;;;19.75;72.55;99777.09;126400;1099;104217;-77
2021/07/04 05:33:17;;;;;;;;;;;;;;;19.77;72.81;99778.91;126380;1099;104634;-76
2021/07/04 05:35:50;;;;;;;;;;;;;;;19.81;73.25;99776.17;126235;1099;105553;-76
2021/07/04 05:38:20;;;;;;;;;;;;;;;19.85;72.73;99772.58;126380;1099;104628;-77
2021/07/04 05:40:50;;;;;;;;;;;;;;;19.90;72.23;99772.52;126379;1099;104155;-77
2021/07/04 05:43:19;;;;;;;;;;;;;;;19.97;73.36;99775.97;125426;1099;104168;-77
2021/07/04 05:45:48;;;;;;;;;;;;;;;20.02;73.12;99766.98;126355;1099;104666;-77
2021/07/04 05:48:17;;;;;;;;;;;;;;;20.10;73.24;99769.53;126373;1099;104226;-77
2021/07/04 05:50:49;;;;;;;;;;;;;;;20.18;72.27;99759.67;126364;1099;104191;-77
2021/07/04 05:53:18;;;;;;;;;;;;;;;20.23;72.85;99757.80;125552;1099;104245;-76
2021/07/04 05:55:47;;;;;;;;;;;;;;;20.30;72.16;99755.91;125367;1099;104191;-77
2021/07/04 05:58:17;;;;;;;;;;;;;;;20.36;72.85;99758.48;126328;1099;104338;-77
2021/07/04 06:00:46;;;;;;;;;;;;;;;20.40;72.53;99754.88;126304;1098;104585;-76
2021/07/04 06:03:15;;;;;;;;;;;;;;;20.41;72.58;99755.73;125397;1099;104137;-76
2021/07/04 06:05:46;;;;;;;;;;;;;;;20.41;72.22;99756.64;125284;1099;104194;-77
2021/07/04 06:08:16;;;;;;;;;;;;;;;20.43;72.47;99749.49;126337;1099;104213;-77
2021/07/04 06:10:51;;;;;;;;;;;;;;;20.48;72.48;99754.74;126358;1099;104144;-77
2021/07/04 06:13:20;;;;;;;;;;;;;;;20.56;72.58;99766.14;126328;1099;104140;-77
2021/07/04 06:15:49;;;;;;;;;;;;;;;20.62;71.42;99762.51;126285;1099;104172;-77
2021/07/04 06:18:19;;;;;;;;;;;;;;;20.67;71.11;99763.33;126321;1099;104185;-77
2021/07/04 06:20:48;;;;;;;;;;;;;;;20.70;71.78;99773.07;125460;1099;104239;-76
2021/07/04 06:23:17;;;;;;;;;;;;;;;20.70;71.02;99762.41;125408;1099;104220;-77
2021/07/04 06:25:47;;;;;;;;;;;;;;;20.75;71.48;99766.73;126222;1099;104586;-76
2021/07/04 06:28:16;;;;;;;;;;;;;;;20.79;71.52;99768.45;125248;1099;104143;-78
2021/07/04 06:30:45;;;;;;;;;;;;;;;20.87;70.69;99770.11;126368;1099;104213;-77
2021/07/04 06:33:15;;;;;;;;;;;;;;;20.90;70.62;99772.72;126384;1099;104127;-77
2021/07/04 06:35:44;;;;;;;;;;;;;;;20.97;70.44;99777.91;126326;1099;104188;-77
2021/07/04 06:38:13;;;;;;;;;;;;;;;21.06;70.60;99782.17;126340;1099;104140;-77
2021/07/04 06:40:42;;;;;;;;;;;;;;;21.15;70.99;99782.00;126327;1099;104326;-76
2021/07/04 06:43:11;;;;;;;;;;;;;;;21.29;70.57;99771.06;126347;1099;104143;-76
2021/07/04 06:45:41;;;;;;;;;;;;;;;21.42;71.06;99773.48;126354;1099;104140;-77
2021/07/04 06:48:10;;;;;;;;;;;;;;;21.56;69.94;99776.78;126344;1099;104194;-76
2021/07/04 06:50:40;;;;;;;;;;;;;;;21.64;69.32;99763.27;126371;1099;104745;-78
2021/07/04 06:53:09;;;;;;;;;;;;;;;21.72;69.99;99766.64;125301;1099;104143;-77
2021/07/04 06:55:38;;;;;;;;;;;;;;;21.82;69.70;99764.67;126353;1099;104309;-76
2021/07/04 06:58:08;;;;;;;;;;;;;;;21.86;69.46;99769.01;126285;1099;104309;-76
2021/07/04 07:00:37;;;;;;;;;;;;;;;21.90;68.95;99760.89;126378;1099;104255;-76
2021/07/04 07:03:06;;;;;;;;;;;;;;;22.03;68.64;99773.97;126345;1099;104178;-76
2021/07/04 07:05:35;;;;;;;;;;;;;;;22.22;69.24;99761.05;126325;1098;104152;-76
2021/07/04 07:08:05;;;;;;;;;;;;;;;22.46;68.51;99759.63;126294;1099;104163;-77
2021/07/04 07:10:35;;;;;;;;;;;;;;;22.72;67.75;99756.29;126397;1099;104251;-76
2021/07/04 07:13:05;;;;;;;;;;;;;;;22.85;68.05;99748.81;126368;1099;104163;-76
2021/07/04 07:15:36;;;;;;;;;;;;;;;22.79;67.83;99752.52;126405;1099;104176;-77
2021/07/04 07:18:05;;;;;;;;;;;;;;;22.79;67.40;99751.65;125352;1099;104198;-76
2021/07/04 07:20:37;;;;;;;;;;;;;;;22.83;67.16;99747.08;125394;1099;104162;-76
2021/07/04 07:23:06;;;;;;;;;;;;;;;22.86;67.30;99747.91;125432;1099;104163;-76
2021/07/04 07:25:41;;;;;;;;;;;;;;;22.92;66.92;99733.46;125467;1099;104182;-76
2021/07/04 07:28:11;;;;;;;;;;;;;;;23.05;66.98;99739.38;125185;1099;104165;-76
2021/07/04 07:30:48;;;;;;;;;;;;;;;23.19;65.49;99738.99;125223;1099;104620;-76
2021/07/04 07:33:20;;;;;;;;;;;;;;;23.31;65.42;99744.90;126372;1099;104156;-76
2021/07/04 07:35:51;;;;;;;;;;;;;;;23.49;65.82;99742.59;125267;1099;104239;-77
2021/07/04 07:38:20;;;;;;;;;;;;;;;23.66;65.94;99742.09;126271;1099;104146;-77
2021/07/04 07:40:50;;;;;;;;;;;;;;;23.77;65.72;99748.00;125397;1099;104172;-76
2021/07/04 07:43:19;;;;;;;;;;;;;;;23.89;64.98;99744.11;126378;1099;104165;-76
2021/07/04 07:45:48;;;;;;;;;;;;;;;24.01;65.22;99741.04;125388;1099;104184;-76
2021/07/04 07:48:17;;;;;;;;;;;;;;;24.15;64.61;99745.96;125235;1099;104143;-77
2021/07/04 07:51:01;;;;;;;;;;;;;;;24.31;63.83;99749.02;126325;1099;104149;-76
2021/07/04 07:53:30;;;;;;;;;;;;;;;24.39;63.33;99754.98;125278;1099;104224;-75
2021/07/04 07:56:00;;;;;;;;;;;;;;;24.48;63.40;99748.45;125385;1099;104174;-76
2021/07/04 07:58:32;;;;;;;;;;;;;;;24.63;62.88;99749.75;126293;1099;104150;-77
2021/07/04 08:01:01;;;;;;;;;;;;;;;24.79;62.36;99750.09;125296;1099;104136;-77
2021/07/04 08:03:30;;;;;;;;;;;;;;;24.99;62.69;99746.70;126377;1099;104143;-77
2021/07/04 08:05:59;;;;;;;;;;;;;;;25.06;62.54;99734.83;126325;1098;104182;-76
2021/07/04 08:08:28;;;;;;;;;;;;;;;25.14;61.59;99733.69;126293;1099;104319;-76
2021/07/04 08:10:57;;;;;;;;;;;;;;;25.20;61.16;99730.78;125235;1099;104159;-77
2021/07/04 08:13:26;;;;;;;;;;;;;;;25.34;61.91;99736.53;126375;1099;104297;-77
2021/07/04 08:15:57;;;;;;;;;;;;;;;25.32;61.15;99735.70;126354;1099;104134;-76
2021/07/04 08:18:26;;;;;;;;;;;;;;;25.37;61.34;99736.42;126276;1099;104168;-76
2021/07/04 08:20:55;;;;;;;;;;;;;;;25.45;61.60;99734.31;126381;1099;104303;-77
2021/07/04 08:23:25;;;;;;;;;;;;;;;25.56;61.23;99735.73;126296;1099;104195;-77
2021/07/04 08:25:54;;;;;;;;;;;;;;;25.76;61.21;99741.19;126389;1099;104159;-77
2021/07/04 08:28:23;;;;;;;;;;;;;;;25.78;59.98;99750.06;125543;1099;104258;-76
2021/07/04 08:30:52;;;;;;;;;;;;;;;25.63;58.46;99747.97;126372;1099;104205;-76
2021/07/04 08:33:22;;;;;;;;;;;;;;;25.63;59.47;99737.22;126356;1098;104584;-76
2021/07/04 08:35:51;;;;;;;;;;;;;;;25.68;60.06;99745.11;126369;1099;104134;-77
2021/07/04 08:38:23;;;;;;;;;;;;;;;25.69;58.94;99746.87;125283;1099;104156;-77
2021/07/04 08:40:52;;;;;;;;;;;;;;;25.80;58.54;99741.94;126359;1099;105165;-76
2021/07/04 08:43:26;;;;;;;;;;;;;;;25.95;58.49;99745.84;126313;1099;104153;-76
2021/07/04 08:45:55;;;;;;;;;;;;;;;26.13;58.31;99737.08;126375;1099;104175;-77
2021/07/04 08:48:25;;;;;;;;;;;;;;;26.39;58.61;99735.11;126307;1099;104184;-77
2021/07/04 08:50:55;;;;;;;;;;;;;;;26.64;58.21;99737.62;126413;1099;104136;-77
2021/07/04 08:53:24;;;;;;;;;;;;;;;26.49;56.82;99739.17;126355;1099;104155;-77
2021/07/04 08:55:53;;;;;;;;;;;;;;;26.27;56.23;99741.89;126355;1099;104190;-77
2021/07/04 08:58:24;;;;;;;;;;;;;;;26.14;57.35;99727.19;126343;1099;104192;-77
2021/07/04 09:01:06;;;;;;;;;;;;;;;26.06;57.51;99723.95;126384;1099;109396;-76
2021/07/04 09:03:36;;;;;;;;;;;;;;;26.15;56.55;99724.44;126370;1099;104181;-77
2021/07/04 09:06:05;;;;;;;;;;;;;;;26.18;56.76;99724.31;125658;1099;104153;-75
2021/07/04 09:08:36;;;;;;;;;;;;;;;26.26;56.97;99729.38;126298;1099;104140;-77
2021/07/04 09:11:17;;;;;;;;;;;;;;;26.38;56.72;99730.66;126366;1099;104131;-77
2021/07/04 09:13:48;;;;;;;;;;;;;;;26.43;55.16;99728.67;126366;1099;104137;-77
2021/07/04 09:16:21;;;;;;;;;;;;;;;26.42;56.42;99721.53;126363;1099;104152;-77
2021/07/04 09:19:05;;;;;;;;;;;;;;;26.41;56.67;99724.28;125371;1099;104363;-75
2021/07/04 09:21:34;;;;;;;;;;;;;;;26.40;55.67;99725.21;125504;1099;107096;-77
2021/07/04 09:24:21;;;;;;;;;;;;;;;26.39;55.58;99715.41;126396;1098;104149;-77
2021/07/04 09:26:51;;;;;;;;;;;;;;;26.41;56.19;99724.28;125431;1099;104210;-77
2021/07/04 09:29:39;;;;;;;;;;;;;;;26.46;55.92;99722.27;126348;1099;104173;-77
2021/07/04 09:32:13;;;;;;;;;;;;;;;26.53;55.79;99719.25;126360;1099;118828;-76
2021/07/04 09:34:43;;;;;;;;;;;;;;;26.53;55.44;99718.39;126331;1099;104156;-75
2021/07/04 09:37:12;;;;;;;;;;;;;;;26.49;54.92;99723.03;126353;1099;104576;-77
2021/07/04 09:39:41;;;;;;;;;;;;;;;26.46;54.42;99725.85;125283;1099;104190;-77
2021/07/04 09:42:11;;;;;;;;;;;;;;;26.42;54.45;99715.28;126291;1098;104198;-78
2021/07/04 09:44:40;;;;;;;;;;;;;;;26.49;54.52;99712.27;125422;1099;104216;-76
2021/07/04 09:47:14;;;;;;;;;;;;;;;26.57;54.46;99716.43;126348;1099;104255;-77
2021/07/04 09:49:44;;;;;;;;;;;;;;;26.65;54.34;99717.89;125216;1098;104268;-76
2021/07/04 09:52:15;;;;;;;;;;;;;;;26.70;53.73;99715.87;126314;1099;105508;-76
2021/07/04 09:54:57;;;;;;;;;;;;;;;26.83;54.38;99704.56;126363;1099;104143;-76
2021/07/04 09:57:27;;;;;;;;;;;;;;;27.04;53.80;99700.06;126359;1099;104281;-77
2021/07/04 10:00:10;;;;;;;;;;;;;;;27.10;53.91;99707.86;125493;1099;104156;-75
2021/07/04 10:02:42;;;;;;;;;;;;;;;27.10;52.84;99699.78;126274;1099;104210;-76
2021/07/04 10:05:15;;;;;;;;;;;;;;;26.93;53.18;99695.16;125375;1099;104281;-76
2021/07/04 10:07:44;;;;;;;;;;;;;;;26.78;52.95;99698.52;126427;1099;104156;-77
2021/07/04 10:10:13;;;;;;;;;;;;;;;26.66;53.53;99699.92;126342;1099;105136;-77
2021/07/04 10:12:42;;;;;;;;;;;;;;;26.63;53.06;99708.09;126286;1099;104134;-77
2021/07/04 10:15:12;;;;;;;;;;;;;;;26.49;52.65;99690.75;125520;1099;104178;-77
2021/07/04 10:17:42;;;;;;;;;;;;;;;26.54;53.06;99693.25;126372;1099;104621;-76
2021/07/04 10:20:12;;;;;;;;;;;;;;;26.57;52.99;99693.11;126339;1099;104175;-77
2021/07/04 10:22:42;;;;;;;;;;;;;;;26.64;52.98;99691.89;126288;1099;104168;-76
2021/07/04 10:25:11;;;;;;;;;;;;;;;26.69;52.29;99697.10;126364;1099;104178;-75
2021/07/04 10:27:40;;;;;;;;;;;;;;;26.59;52.65;99687.67;126390;1099;104150;-77
2021/07/04 10:30:10;;;;;;;;;;;;;;;26.55;52.95;99693.18;126387;1099;104245;-77
2021/07/04 10:32:59;;;;;;;;;;;;;;;26.59;53.42;99684.98;126358;1099;104175;-77
2021/07/04 10:35:28;;;;;;;;;;;;;;;26.63;52.27;99697.33;125478;1099;104315;-76
2021/07/04 10:38:11;;;;;;;;;;;;;;;26.68;52.44;99682.78;125481;1099;104124;-77
2021/07/04 10:40:41;;;;;;;;;;;;;;;26.71;52.42;99679.09;126400;1099;104207;-78
2021/07/04 10:43:30;;;;;;;;;;;;;;;26.66;51.79;99679.30;125531;1099;104136;-78
2021/07/04 10:45:59;;;;;;;;;;;;;;;26.72;52.26;99675.44;125623;1099;104331;-77
2021/07/04 10:48:30;;;;;;;;;;;;;;;26.85;52.36;99673.97;126385;1099;104201;-78
2021/07/04 10:51:12;;;;;;;;;;;;;;;26.92;51.92;99666.48;126345;1099;104143;-76
2021/07/04 10:53:46;;;;;;;;;;;;;;;26.94;51.71;99664.58;126317;1099;104229;-76
2021/07/04 10:56:29;;;;;;;;;;;;;;;26.96;52.46;99664.51;126373;1098;104240;-77
2021/07/04 10:59:03;;;;;;;;;;;;;;;26.94;51.86;99669.97;126409;1099;104293;-77
2021/07/04 11:01:41;;;;;;;;;;;;;;;26.82;52.00;99670.55;126352;1099;104284;-77
2021/07/04 11:04:27;;;;;;;;;;;;;;;26.78;51.87;99664.41;126316;1099;107105;-75
2021/07/04 11:07:01;;;;;;;;;;;;;;;26.69;52.17;99667.50;125605;1099;104576;-78
2021/07/04 11:09:55;;;;;;;;;;;;;;;26.77;51.65;99656.40;126359;1099;104216;-78
2021/07/04 11:12:26;;;;;;;;;;;;;;;26.88;51.28;99663.06;125581;1099;104689;-76
2021/07/04 11:15:08;;;;;;;;;;;;;;;26.90;51.46;99655.78;126354;1099;104712;-77
2021/07/04 11:17:51;;;;;;;;;;;;;;;26.95;51.37;99652.88;126341;1099;104227;-77
2021/07/04 11:20:20;;;;;;;;;;;;;;;26.94;51.12;99642.19;126362;1099;104233;-76
2021/07/04 11:23:00;;;;;;;;;;;;;;;26.96;50.45;99645.67;126321;1099;104175;-77
2021/07/04 11:25:43;;;;;;;;;;;;;;;26.98;50.71;99636.59;126375;1099;104147;-77
2021/07/04 11:28:22;;;;;;;;;;;;;;;27.02;50.78;99640.00;126362;1099;104146;-76
2021/07/04 11:30:52;;;;;;;;;;;;;;;27.05;50.79;99637.17;126352;1098;104149;-76
2021/07/04 11:33:33;;;;;;;;;;;;;;;27.08;50.33;99640.62;125212;1099;104225;-76
2021/07/04 11:36:07;;;;;;;;;;;;;;;27.12;50.64;99635.09;126402;1099;104137;-77
2021/07/04 11:38:37;;;;;;;;;;;;;;;27.28;50.72;99640.63;125360;1099;104140;-76
2021/07/04 11:41:08;;;;;;;;;;;;;;;27.38;50.30;99639.29;125411;1099;104139;-77
2021/07/04 11:43:40;;;;;;;;;;;;;;;27.44;50.30;99641.66;126256;1099;104213;-77
2021/07/04 11:46:10;;;;;;;;;;;;;;;27.47;49.74;99635.27;126347;1098;104182;-77
2021/07/04 11:48:51;;;;;;;;;;;;;;;27.46;50.04;99634.40;126348;1099;104149;-75
2021/07/04 11:51:25;;;;;;;;;;;;;;;27.46;50.07;99637.09;126395;1099;104170;-76
2021/07/04 11:53:56;;;;;;;;;;;;;;;27.48;49.97;99635.19;126343;1099;104214;-76
2021/07/04 11:56:26;;;;;;;;;;;;;;;27.50;49.26;99630.59;126365;1099;104210;-76
2021/07/04 11:59:05;;;;;;;;;;;;;;;27.46;49.57;99630.81;126368;1099;104140;-76
2021/07/04 12:01:39;;;;;;;;;;;;;;;27.46;49.59;99631.70;126280;1099;104210;-77
2021/07/04 12:04:11;;;;;;;;;;;;;;;27.37;49.08;99629.45;126341;1099;104146;-76
2021/07/04 12:06:51;;;;;;;;;;;;;;;27.39;49.33;99638.32;126400;1099;104797;-76
2021/07/04 12:09:21;;;;;;;;;;;;;;;27.47;49.01;99630.73;125417;1099;104560;-77
2021/07/04 12:11:53;;;;;;;;;;;;;;;27.50;48.74;99633.28;125438;1099;104133;-76
2021/07/04 12:14:28;;;;;;;;;;;;;;;27.49;48.72;99636.95;126303;1099;104392;-77
2021/07/04 12:16:58;;;;;;;;;;;;;;;27.58;49.25;99639.20;126328;1099;104252;-77
2021/07/04 12:19:33;;;;;;;;;;;;;;;27.55;49.12;99636.66;126364;1098;104300;-76
2021/07/04 12:22:04;;;;;;;;;;;;;;;27.51;49.09;99635.05;126357;1098;104293;-77
2021/07/04 12:24:34;;;;;;;;;;;;;;;27.49;48.92;99645.03;126287;1099;104246;-77
2021/07/04 12:27:03;;;;;;;;;;;;;;;27.47;48.58;99637.95;126338;1099;104312;-76
2021/07/04 12:29:53;;;;;;;;;;;;;;;27.38;48.90;99625.82;126414;1099;104255;-77
2021/07/04 12:32:22;;;;;;;;;;;;;;;27.32;48.42;99624.28;125596;1099;104913;-77
2021/07/04 12:34:51;;;;;;;;;;;;;;;27.37;48.42;99632.14;125446;1099;104143;-77
2021/07/04 12:37:21;;;;;;;;;;;;;;;27.38;48.33;99626.69;126363;1098;104134;-77
2021/07/04 12:40:05;;;;;;;;;;;;;;;27.40;48.37;99623.91;126369;1099;104663;-77
2021/07/04 12:42:35;;;;;;;;;;;;;;;27.52;48.51;99623.33;125703;1099;104175;-77
2021/07/04 12:45:06;;;;;;;;;;;;;;;27.54;48.38;99624.12;126298;1099;104578;-75
2021/07/04 12:47:35;;;;;;;;;;;;;;;27.67;48.27;99616.30;126309;1099;104248;-76
2021/07/04 12:50:09;;;;;;;;;;;;;;;27.82;48.44;99619.21;126289;1099;104150;-75
2021/07/04 12:52:52;;;;;;;;;;;;;;;27.97;48.18;99619.34;126347;1099;104246;-77